Laytonville, California
Current Conditions -  °F | °C
As of 7:56 PM on Tuesday 21 Oct 2014 (Local Time) from KUKI Reporting Station
Clear Clear  
Wind Chill: 58°   Ceiling: Unl
Heat Index: 58°   Visibility: 10mi
Dew Point: 46°   Wind: 0mph
Humidity: 65%   Direction: NA
Pressure: 30.05"   Gusts: NA
Location:  39.69°N, 123.49°W
Report Text: KUKI 220256Z AUTO 00000KT 10SM CLR 14/08 A3005 RMK AO2 SLP171 T01440078 53005
Loading
Personal Weather Stations






























Interactive Weather Map
Tropical Storm Tracking
New forecast layout! Learn more

10-Day Weather Forecast

Advertisements
Track Severe Weather on mobile